Time;durP1;ratioP1;P1;durP2;ratioP2;P2;SDS_P1;SDS_P2;PMS_P1;PMS_P2;Temp;Humidity;BMP_temperature;BMP_pressure;BME280_temperature;BME280_humidity;BME280_pressure;Samples;Min_cycle;Max_cycle;Signal;HPM_P1;HPM_P2
2022/09/25 00:00:21;;;;;;;16.98;10.60;;;;;;;;;;4985045;28;20442;-82
2022/09/25 00:02:48;;;;;;;15.85;10.70;;;;;;;;;;4983708;28;20435;-82
2022/09/25 00:05:14;;;;;;;19.95;10.50;;;;;;;;;;4984808;28;20435;-82
2022/09/25 00:07:41;;;;;;;17.35;11.27;;;;;;;;;;4985059;28;20426;-82
2022/09/25 00:10:08;;;;;;;20.10;9.95;;;;;;;;;;4983779;28;20483;-82
2022/09/25 00:12:36;;;;;;;17.85;10.75;;;;;;;;;;4983399;28;20431;-81
2022/09/25 00:15:03;;;;;;;16.02;10.10;;;;;;;;;;4987419;28;20434;-82
2022/09/25 00:17:30;;;;;;;16.38;10.18;;;;;;;;;;4985456;28;20786;-81
2022/09/25 00:19:55;;;;;;;16.75;9.93;;;;;;;;;;4985425;28;20436;-82
2022/09/25 00:22:23;;;;;;;17.30;9.97;;;;;;;;;;4983658;28;20792;-82
2022/09/25 00:24:50;;;;;;;18.08;10.10;;;;;;;;;;4984813;28;20435;-81
2022/09/25 00:27:17;;;;;;;15.35;9.82;;;;;;;;;;4982564;28;20422;-82
2022/09/25 00:29:44;;;;;;;17.00;9.88;;;;;;;;;;4985421;28;20950;-82
2022/09/25 00:32:12;;;;;;;20.63;9.65;;;;;;;;;;4966489;28;20918;-82
2022/09/25 00:34:39;;;;;;;19.13;9.57;;;;;;;;;;4983750;28;20442;-82
2022/09/25 00:37:06;;;;;;;13.70;9.00;;;;;;;;;;4983783;28;20807;-81
2022/09/25 00:39:34;;;;;;;18.20;10.00;;;;;;;;;;4983290;28;20524;-82
2022/09/25 00:42:02;;;;;;;18.83;10.40;;;;;;;;;;4984248;28;20438;-82
2022/09/25 00:44:56;;;;;;;13.93;8.35;;;;;;;;;;4984275;28;20440;-82
2022/09/25 00:47:27;;;;;;;15.10;8.50;;;;;;;;;;4982562;28;20526;-83
2022/09/25 00:49:54;;;;;;;17.25;8.68;;;;;;;;;;4981049;28;20440;-81
2022/09/25 00:52:22;;;;;;;15.80;7.75;;;;;;;;;;4983335;28;20433;-81
2022/09/25 00:54:51;;;;;;;16.70;7.57;;;;;;;;;;4986430;28;20440;-82
2022/09/25 00:57:19;;;;;;;10.37;6.90;;;;;;;;;;4984765;28;20415;-82
2022/09/25 00:59:46;;;;;;;13.63;6.88;;;;;;;;;;4981043;28;20841;-81
2022/09/25 01:02:16;;;;;;;14.15;6.75;;;;;;;;;;4983281;28;20441;-81
2022/09/25 01:04:45;;;;;;;16.57;6.20;;;;;;;;;;4983294;28;20443;-81
2022/09/25 01:07:12;;;;;;;11.82;6.05;;;;;;;;;;4984190;28;20844;-82
2022/09/25 01:09:39;;;;;;;11.35;6.40;;;;;;;;;;4983760;28;20436;-82
2022/09/25 01:12:05;;;;;;;15.90;6.18;;;;;;;;;;4984145;28;20430;-82
2022/09/25 01:14:33;;;;;;;13.55;6.22;;;;;;;;;;4983720;28;20426;-82
2022/09/25 01:17:02;;;;;;;15.37;6.20;;;;;;;;;;4981365;28;20446;-82
2022/09/25 01:19:35;;;;;;;14.15;5.70;;;;;;;;;;4983518;28;20475;-82
2022/09/25 01:22:10;;;;;;;16.38;6.07;;;;;;;;;;4984427;28;20434;-81
2022/09/25 01:24:51;;;;;;;15.73;6.40;;;;;;;;;;4982673;28;20434;-82
2022/09/25 01:27:33;;;;;;;12.00;6.30;;;;;;;;;;4981134;28;20411;-82
2022/09/25 01:30:05;;;;;;;12.10;5.80;;;;;;;;;;4983921;28;20450;-83
2022/09/25 01:32:34;;;;;;;16.20;6.30;;;;;;;;;;4983000;28;20792;-82
2022/09/25 01:35:02;;;;;;;14.05;5.35;;;;;;;;;;4982708;28;20440;-81
2022/09/25 01:37:31;;;;;;;11.30;5.50;;;;;;;;;;4980131;28;20428;-82
2022/09/25 01:40:02;;;;;;;13.07;5.30;;;;;;;;;;4984771;28;20430;-82
2022/09/25 01:42:33;;;;;;;13.00;5.03;;;;;;;;;;4983107;28;20425;-82
2022/09/25 01:45:03;;;;;;;9.27;5.05;;;;;;;;;;4984068;28;20447;-81
2022/09/25 01:47:33;;;;;;;13.95;5.72;;;;;;;;;;4983186;28;20797;-82
2022/09/25 01:50:00;;;;;;;13.90;5.40;;;;;;;;;;4988018;28;20438;-81
2022/09/25 01:52:29;;;;;;;10.80;5.10;;;;;;;;;;4989065;28;20427;-81
2022/09/25 01:55:01;;;;;;;15.90;5.68;;;;;;;;;;4989113;28;20920;-81
2022/09/25 01:57:31;;;;;;;10.73;4.40;;;;;;;;;;4985980;28;20503;-81
2022/09/25 02:00:01;;;;;;;12.73;4.50;;;;;;;;;;4986805;28;20443;-81
2022/09/25 02:02:31;;;;;;;13.13;5.03;;;;;;;;;;4986340;28;20436;-80
2022/09/25 02:05:01;;;;;;;12.40;4.70;;;;;;;;;;4985588;28;20562;-80
2022/09/25 02:07:30;;;;;;;9.80;4.00;;;;;;;;;;4984426;28;20411;-81
2022/09/25 02:09:59;;;;;;;13.30;4.60;;;;;;;;;;4984907;28;20438;-82
2022/09/25 02:12:26;;;;;;;12.60;4.40;;;;;;;;;;4985835;28;20879;-82
2022/09/25 02:14:54;;;;;;;10.68;4.40;;;;;;;;;;4990292;28;20446;-81
2022/09/25 02:22:51;;;;;;;12.40;4.80;;;;;;;;;;4986198;28;20786;-80
2022/09/25 02:25:21;;;;;;;12.00;4.60;;;;;;;;;;4986422;28;20436;-82
2022/09/25 02:27:49;;;;;;;9.30;4.43;;;;;;;;;;4985423;28;20422;-81
2022/09/25 02:30:16;;;;;;;8.80;4.05;;;;;;;;;;4986939;28;20434;-81
2022/09/25 02:32:43;;;;;;;10.43;4.30;;;;;;;;;;4985121;28;20439;-81
2022/09/25 02:35:11;;;;;;;12.48;4.65;;;;;;;;;;4988425;28;20445;-81
2022/09/25 02:37:37;;;;;;;11.18;4.15;;;;;;;;;;4985208;28;20433;-81
2022/09/25 02:40:04;;;;;;;11.38;4.60;;;;;;;;;;4987140;28;20434;-81
2022/09/25 02:42:35;;;;;;;10.53;4.70;;;;;;;;;;4986716;28;20470;-81
2022/09/25 02:45:08;;;;;;;12.82;4.78;;;;;;;;;;4987553;28;20442;-81
2022/09/25 02:47:37;;;;;;;11.50;4.43;;;;;;;;;;4984379;28;20422;-80
2022/09/25 02:50:10;;;;;;;13.57;4.40;;;;;;;;;;4985631;28;20439;-81
2022/09/25 02:52:43;;;;;;;12.67;4.30;;;;;;;;;;4983897;28;20430;-81
2022/09/25 02:55:12;;;;;;;10.77;3.90;;;;;;;;;;4982799;28;20431;-82
2022/09/25 02:57:44;;;;;;;11.50;4.15;;;;;;;;;;4985416;28;20422;-83
2022/09/25 03:00:12;;;;;;;9.77;3.60;;;;;;;;;;4982809;28;20445;-83
2022/09/25 03:02:39;;;;;;;16.13;4.20;;;;;;;;;;4985338;28;20434;-82
2022/09/25 03:05:06;;;;;;;8.73;3.40;;;;;;;;;;4984394;28;20939;-82
2022/09/25 03:08:36;;;;;;;13.15;4.38;;;;;;;;;;4982477;28;20563;-82
2022/09/25 03:10:21;;;;;;;8.70;3.42;;;;;;;;;;4984852;28;20425;-82
2022/09/25 03:12:47;;;;;;;11.82;3.80;;;;;;;;;;4985660;28;20449;-82
2022/09/25 03:15:14;;;;;;;13.47;3.40;;;;;;;;;;4983131;28;20459;-82
2022/09/25 03:17:40;;;;;;;11.45;3.90;;;;;;;;;;4985080;28;20430;-83
2022/09/25 03:20:08;;;;;;;12.17;3.50;;;;;;;;;;4983706;28;20428;-82
2022/09/25 03:22:35;;;;;;;7.05;3.22;;;;;;;;;;4985617;28;20424;-82
2022/09/25 03:25:02;;;;;;;7.10;3.03;;;;;;;;;;4984678;28;20434;-82
2022/09/25 03:27:29;;;;;;;9.32;3.35;;;;;;;;;;4985791;28;20437;-82
2022/09/25 03:29:56;;;;;;;10.95;3.10;;;;;;;;;;4983873;28;20432;-82
2022/09/25 03:32:22;;;;;;;14.55;4.53;;;;;;;;;;4986117;28;20426;-83
2022/09/25 03:34:49;;;;;;;8.98;3.33;;;;;;;;;;4984148;28;20440;-82
2022/09/25 03:37:15;;;;;;;9.88;3.17;;;;;;;;;;4982576;28;20395;-82
2022/09/25 03:39:42;;;;;;;9.45;3.90;;;;;;;;;;4985236;28;20427;-82
2022/09/25 03:42:08;;;;;;;11.65;3.70;;;;;;;;;;4984518;28;20438;-81
2022/09/25 03:44:36;;;;;;;10.73;3.47;;;;;;;;;;4985356;28;20416;-82
2022/09/25 03:47:02;;;;;;;8.23;3.10;;;;;;;;;;4983900;28;20441;-83
2022/09/25 03:49:29;;;;;;;10.60;3.58;;;;;;;;;;4983523;28;20448;-82
2022/09/25 03:51:55;;;;;;;11.65;3.60;;;;;;;;;;4984081;28;20435;-82
2022/09/25 03:54:22;;;;;;;11.35;3.47;;;;;;;;;;4984887;28;20436;-82
2022/09/25 03:56:48;;;;;;;7.20;2.90;;;;;;;;;;4982245;28;20431;-82
2022/09/25 03:59:15;;;;;;;11.23;3.28;;;;;;;;;;4985103;28;20435;-82
2022/09/25 04:01:46;;;;;;;5.85;2.90;;;;;;;;;;4983096;28;20450;-82
2022/09/25 04:04:13;;;;;;;8.98;2.97;;;;;;;;;;4984315;28;20423;-82
2022/09/25 04:06:40;;;;;;;8.18;2.80;;;;;;;;;;4982719;28;20563;-82
2022/09/25 04:09:07;;;;;;;10.02;3.22;;;;;;;;;;4982021;28;20438;-82
2022/09/25 04:11:34;;;;;;;5.30;2.40;;;;;;;;;;4985034;28;20440;-82
2022/09/25 04:14:00;;;;;;;6.27;3.07;;;;;;;;;;4984676;28;20437;-83
2022/09/25 04:16:28;;;;;;;7.80;2.60;;;;;;;;;;4984730;28;20432;-82
2022/09/25 04:18:56;;;;;;;6.72;2.90;;;;;;;;;;4983191;28;20423;-83
2022/09/25 04:21:22;;;;;;;3.67;2.30;;;;;;;;;;4984894;28;21073;-82
2022/09/25 04:26:30;;;;;;;7.25;2.90;;;;;;;;;;4983435;28;20502;-82
2022/09/25 04:28:57;;;;;;;6.93;3.00;;;;;;;;;;4983187;28;20436;-82
2022/09/25 04:31:24;;;;;;;5.78;2.60;;;;;;;;;;4980454;28;20427;-82
2022/09/25 04:33:49;;;;;;;6.53;2.83;;;;;;;;;;4982778;28;20422;-83
2022/09/25 04:36:18;;;;;;;5.77;2.80;;;;;;;;;;4982015;28;20430;-82
2022/09/25 04:38:45;;;;;;;5.88;2.78;;;;;;;;;;4983544;28;20435;-82
2022/09/25 04:41:11;;;;;;;7.60;2.97;;;;;;;;;;4984403;28;20430;-83
2022/09/25 04:43:40;;;;;;;3.65;2.28;;;;;;;;;;4982021;28;20450;-82
2022/09/25 04:46:08;;;;;;;7.05;2.40;;;;;;;;;;4985343;28;20443;-83
2022/09/25 04:48:35;;;;;;;7.93;2.78;;;;;;;;;;4983842;28;20990;-82
2022/09/25 04:51:02;;;;;;;6.15;2.40;;;;;;;;;;4982838;28;20484;-83
2022/09/25 04:53:30;;;;;;;7.20;3.20;;;;;;;;;;4965523;28;20420;-82
2022/09/25 04:56:00;;;;;;;3.70;2.30;;;;;;;;;;4983659;28;20520;-82
2022/09/25 04:58:26;;;;;;;8.20;3.00;;;;;;;;;;4981767;28;20420;-82
2022/09/25 05:00:53;;;;;;;5.72;2.83;;;;;;;;;;4982056;28;20442;-82
2022/09/25 05:03:19;;;;;;;5.13;2.60;;;;;;;;;;4982087;28;20482;-82
2022/09/25 05:05:47;;;;;;;9.15;2.95;;;;;;;;;;4982310;28;20430;-82
2022/09/25 05:08:13;;;;;;;7.67;4.03;;;;;;;;;;4982231;28;20503;-83
2022/09/25 05:10:43;;;;;;;9.45;4.70;;;;;;;;;;4983791;28;20438;-83
2022/09/25 05:13:10;;;;;;;6.70;4.38;;;;;;;;;;4984254;28;20441;-83
2022/09/25 05:15:37;;;;;;;8.18;4.13;;;;;;;;;;4983416;28;20496;-83
2022/09/25 05:18:04;;;;;;;9.82;4.40;;;;;;;;;;4983105;28;20433;-81
2022/09/25 05:20:31;;;;;;;10.50;4.25;;;;;;;;;;4983385;28;20462;-82
2022/09/25 05:22:58;;;;;;;14.20;4.82;;;;;;;;;;4984732;28;20420;-82
2022/09/25 05:25:25;;;;;;;10.50;4.60;;;;;;;;;;4986606;28;20448;-82
2022/09/25 05:27:56;;;;;;;11.50;4.00;;;;;;;;;;4988186;28;20433;-82
2022/09/25 05:30:22;;;;;;;10.50;4.55;;;;;;;;;;4985278;28;20490;-83
2022/09/25 05:32:49;;;;;;;12.65;4.80;;;;;;;;;;4987237;28;20438;-83
2022/09/25 05:35:16;;;;;;;10.43;5.20;;;;;;;;;;5001184;28;20438;-81
2022/09/25 05:37:43;;;;;;;8.70;4.63;;;;;;;;;;4986357;28;20468;-82
2022/09/25 05:40:10;;;;;;;10.90;4.72;;;;;;;;;;4986056;28;20430;-82
2022/09/25 05:42:37;;;;;;;8.70;4.90;;;;;;;;;;4983772;28;20430;-83
2022/09/25 05:45:05;;;;;;;8.02;4.50;;;;;;;;;;4985813;28;20891;-83
2022/09/25 05:47:31;;;;;;;13.32;6.25;;;;;;;;;;4984518;28;20424;-82
2022/09/25 05:49:58;;;;;;;7.97;5.68;;;;;;;;;;4987900;28;20440;-83
2022/09/25 05:52:25;;;;;;;13.27;6.50;;;;;;;;;;4985624;28;20412;-82
2022/09/25 05:54:52;;;;;;;14.43;7.10;;;;;;;;;;4983204;28;20443;-81
2022/09/25 05:57:18;;;;;;;14.52;7.80;;;;;;;;;;4982817;28;20415;-83
2022/09/25 05:59:44;;;;;;;13.40;7.50;;;;;;;;;;4986422;28;20434;-83
2022/09/25 06:02:12;;;;;;;12.45;8.00;;;;;;;;;;4966268;28;20438;-82
2022/09/25 06:04:39;;;;;;;17.30;10.70;;;;;;;;;;4986045;28;20443;-83
2022/09/25 06:07:05;;;;;;;13.38;10.27;;;;;;;;;;4985666;28;20438;-83
2022/09/25 06:09:31;;;;;;;19.15;10.55;;;;;;;;;;4984689;28;21383;-83
2022/09/25 06:11:58;;;;;;;17.27;12.20;;;;;;;;;;4983640;28;20432;-83
2022/09/25 06:14:24;;;;;;;15.13;12.40;;;;;;;;;;4987254;28;20432;-82
2022/09/25 06:16:51;;;;;;;19.02;14.55;;;;;;;;;;4989253;28;20952;-83
2022/09/25 06:19:19;;;;;;;20.80;15.60;;;;;;;;;;4985496;28;20434;-82
2022/09/25 06:21:46;;;;;;;23.50;16.35;;;;;;;;;;4985603;28;20458;-82
2022/09/25 06:24:12;;;;;;;24.85;16.30;;;;;;;;;;4984629;28;20493;-83
2022/09/25 06:26:39;;;;;;;19.60;16.25;;;;;;;;;;4986794;28;20438;-82
2022/09/25 06:29:06;;;;;;;22.85;16.40;;;;;;;;;;4983049;28;20486;-82
2022/09/25 06:31:34;;;;;;;19.00;16.70;;;;;;;;;;4984161;28;20447;-82
2022/09/25 06:34:01;;;;;;;26.60;20.10;;;;;;;;;;4983136;28;20441;-82
2022/09/25 06:36:28;;;;;;;24.58;19.50;;;;;;;;;;4985606;28;20445;-82
2022/09/25 06:38:55;;;;;;;26.65;20.55;;;;;;;;;;4984716;28;20434;-83
2022/09/25 06:41:22;;;;;;;30.63;22.30;;;;;;;;;;4988846;28;20816;-82
2022/09/25 06:43:49;;;;;;;29.63;22.85;;;;;;;;;;4980684;28;20426;-83
2022/09/25 06:46:17;;;;;;;28.35;21.33;;;;;;;;;;4986196;28;20434;-81
2022/09/25 06:48:43;;;;;;;30.90;20.30;;;;;;;;;;4984908;28;20439;-82
2022/09/25 06:51:09;;;;;;;28.02;19.25;;;;;;;;;;4987139;28;20428;-82
2022/09/25 06:53:37;;;;;;;24.30;19.92;;;;;;;;;;4984720;28;20434;-82
2022/09/25 06:56:04;;;;;;;23.10;18.00;;;;;;;;;;4984457;28;20430;-82
2022/09/25 06:58:30;;;;;;;24.85;15.48;;;;;;;;;;4985865;28;21155;-83
2022/09/25 07:00:56;;;;;;;20.20;15.18;;;;;;;;;;4985316;28;20983;-82
2022/09/25 07:06:09;;;;;;;14.88;10.02;;;;;;;;;;4985430;28;20435;-82
2022/09/25 07:08:37;;;;;;;17.52;9.20;;;;;;;;;;4984252;28;20483;-82
2022/09/25 07:11:04;;;;;;;10.40;7.18;;;;;;;;;;4983632;28;20928;-82
2022/09/25 07:13:32;;;;;;;10.00;6.10;;;;;;;;;;4984053;28;20430;-82
2022/09/25 07:15:59;;;;;;;10.33;5.80;;;;;;;;;;4984980;28;20434;-83
2022/09/25 07:18:27;;;;;;;17.52;5.80;;;;;;;;;;4982596;28;20972;-82
2022/09/25 07:20:54;;;;;;;11.10;5.70;;;;;;;;;;4985900;28;20918;-83
2022/09/25 07:23:21;;;;;;;12.50;5.80;;;;;;;;;;4985924;28;20436;-82
2022/09/25 07:25:49;;;;;;;10.23;4.90;;;;;;;;;;4987050;28;20440;-82
2022/09/25 07:28:18;;;;;;;13.15;5.57;;;;;;;;;;4984908;28;20437;-82
2022/09/25 07:30:45;;;;;;;13.88;4.80;;;;;;;;;;4983082;28;20832;-83
2022/09/25 07:33:12;;;;;;;8.32;4.70;;;;;;;;;;5011397;28;20483;-82
2022/09/25 07:35:38;;;;;;;11.25;5.00;;;;;;;;;;4983793;28;20507;-82
2022/09/25 07:38:05;;;;;;;9.40;4.43;;;;;;;;;;4984907;28;20430;-83
2022/09/25 07:40:34;;;;;;;10.15;4.50;;;;;;;;;;4985271;28;20442;-82
2022/09/25 07:43:02;;;;;;;9.35;4.80;;;;;;;;;;4984627;28;20814;-83
2022/09/25 07:45:28;;;;;;;11.10;4.72;;;;;;;;;;4982883;28;20483;-82
2022/09/25 07:47:55;;;;;;;6.90;3.90;;;;;;;;;;4982843;28;20912;-82
2022/09/25 07:50:22;;;;;;;7.72;4.40;;;;;;;;;;4984482;28;20814;-82
2022/09/25 07:52:48;;;;;;;12.18;4.13;;;;;;;;;;4984564;28;20439;-83
2022/09/25 07:55:15;;;;;;;11.55;4.60;;;;;;;;;;4984663;28;20434;-82
2022/09/25 07:57:42;;;;;;;10.48;4.70;;;;;;;;;;4980388;28;20414;-83
2022/09/25 08:00:12;;;;;;;7.95;3.80;;;;;;;;;;4985316;28;20927;-83
2022/09/25 08:02:38;;;;;;;7.93;4.25;;;;;;;;;;4982761;28;20434;-83
2022/09/25 08:05:05;;;;;;;8.33;3.90;;;;;;;;;;4984156;28;20435;-83
2022/09/25 08:07:34;;;;;;;6.80;4.07;;;;;;;;;;4984093;28;20540;-83
2022/09/25 08:10:01;;;;;;;8.65;4.03;;;;;;;;;;4985419;28;20441;-83
2022/09/25 08:12:28;;;;;;;7.88;3.72;;;;;;;;;;4983507;28;20424;-81
2022/09/25 08:14:55;;;;;;;9.37;3.60;;;;;;;;;;4986456;28;20431;-82
2022/09/25 08:17:22;;;;;;;6.07;3.55;;;;;;;;;;4983496;28;20417;-81
2022/09/25 08:19:49;;;;;;;5.95;2.83;;;;;;;;;;4984709;28;20446;-81
2022/09/25 08:22:15;;;;;;;6.88;3.00;;;;;;;;;;4982884;28;20426;-82
2022/09/25 08:24:42;;;;;;;5.50;3.10;;;;;;;;;;4984223;28;20430;-81
2022/09/25 08:27:08;;;;;;;7.45;3.13;;;;;;;;;;4983109;28;20434;-82
2022/09/25 08:29:35;;;;;;;7.10;3.20;;;;;;;;;;4985705;28;20434;-81
2022/09/25 08:32:01;;;;;;;5.75;2.72;;;;;;;;;;4982473;28;20512;-81
2022/09/25 08:34:30;;;;;;;6.93;2.97;;;;;;;;;;4980570;28;20924;-83
2022/09/25 08:36:58;;;;;;;5.60;2.50;;;;;;;;;;4981309;28;20502;-82
2022/09/25 08:39:24;;;;;;;4.80;2.70;;;;;;;;;;4985178;28;20416;-83
2022/09/25 08:41:52;;;;;;;8.90;2.90;;;;;;;;;;5015622;28;20434;-82
2022/09/25 08:44:21;;;;;;;10.10;2.90;;;;;;;;;;4985335;28;20432;-81
2022/09/25 08:49:37;;;;;;;7.45;2.60;;;;;;;;;;4982138;28;20439;-83
2022/09/25 08:52:07;;;;;;;5.53;2.10;;;;;;;;;;4984206;28;20434;-82
2022/09/25 08:54:34;;;;;;;7.20;2.50;;;;;;;;;;4981539;28;20454;-81
2022/09/25 08:57:07;;;;;;;7.55;2.25;;;;;;;;;;4982654;28;20444;-83
2022/09/25 08:59:35;;;;;;;6.53;1.93;;;;;;;;;;4982947;28;20949;-81
2022/09/25 09:02:03;;;;;;;4.60;1.90;;;;;;;;;;4982877;28;20430;-82
2022/09/25 09:04:31;;;;;;;5.45;1.90;;;;;;;;;;4983183;28;20443;-82
2022/09/25 09:07:03;;;;;;;6.85;2.05;;;;;;;;;;4982661;28;20443;-82
2022/09/25 09:09:31;;;;;;;4.70;1.90;;;;;;;;;;4983255;28;20432;-81
2022/09/25 09:12:02;;;;;;;6.30;2.00;;;;;;;;;;4980646;28;20998;-83
2022/09/25 09:14:30;;;;;;;5.32;2.00;;;;;;;;;;4983110;28;20457;-82
2022/09/25 09:16:59;;;;;;;4.40;1.80;;;;;;;;;;4982521;28;20950;-84
2022/09/25 09:19:26;;;;;;;4.63;1.63;;;;;;;;;;4982936;28;20435;-81
2022/09/25 09:21:59;;;;;;;6.70;1.90;;;;;;;;;;4983187;28;20491;-80
2022/09/25 09:24:29;;;;;;;6.47;1.80;;;;;;;;;;4979942;28;20426;-81
2022/09/25 09:27:05;;;;;;;3.47;1.10;;;;;;;;;;4982806;28;20434;-84
2022/09/25 09:29:46;;;;;;;2.67;1.10;;;;;;;;;;4982385;28;20448;-84
2022/09/25 09:32:23;;;;;;;3.42;1.25;;;;;;;;;;4979470;28;20428;-84
2022/09/25 09:35:02;;;;;;;2.67;1.38;;;;;;;;;;5014390;28;20442;-82
2022/09/25 09:37:34;;;;;;;5.47;1.60;;;;;;;;;;4978487;28;20504;-85
2022/09/25 09:40:12;;;;;;;3.40;1.63;;;;;;;;;;4983649;28;20443;-83
2022/09/25 09:42:46;;;;;;;4.68;1.52;;;;;;;;;;4983317;28;20424;-81
2022/09/25 09:45:16;;;;;;;4.35;1.50;;;;;;;;;;4982723;28;20507;-84
2022/09/25 09:47:49;;;;;;;5.07;1.80;;;;;;;;;;4983374;28;20489;-81
2022/09/25 09:50:20;;;;;;;4.47;1.60;;;;;;;;;;4981669;28;20510;-83
2022/09/25 09:52:49;;;;;;;5.97;1.90;;;;;;;;;;4982024;28;20418;-83
2022/09/25 09:55:20;;;;;;;7.00;2.30;;;;;;;;;;4983706;28;20430;-83
2022/09/25 09:57:48;;;;;;;5.97;1.80;;;;;;;;;;5012609;28;20918;-83
2022/09/25 10:00:16;;;;;;;9.40;2.00;;;;;;;;;;4982721;28;20460;-83
2022/09/25 10:02:44;;;;;;;7.72;2.20;;;;;;;;;;4980360;28;20430;-82
2022/09/25 10:05:15;;;;;;;3.85;1.90;;;;;;;;;;4982464;28;20814;-83
2022/09/25 10:07:43;;;;;;;7.78;2.53;;;;;;;;;;4981221;28;20487;-84
2022/09/25 10:10:13;;;;;;;7.07;2.20;;;;;;;;;;5015775;28;20441;-82
2022/09/25 10:12:43;;;;;;;6.80;1.93;;;;;;;;;;4982670;28;20495;-82
2022/09/25 10:15:15;;;;;;;5.85;2.10;;;;;;;;;;4986167;28;20851;-81
2022/09/25 10:17:42;;;;;;;6.18;1.80;;;;;;;;;;4985930;28;20424;-81
2022/09/25 10:20:14;;;;;;;4.20;2.10;;;;;;;;;;4985644;28;20957;-82
2022/09/25 10:22:42;;;;;;;5.30;2.00;;;;;;;;;;4984462;28;20441;-82
2022/09/25 10:25:09;;;;;;;5.93;2.13;;;;;;;;;;4981246;28;20952;-82
2022/09/25 10:27:35;;;;;;;7.78;2.10;;;;;;;;;;4985000;28;20424;-82
2022/09/25 10:30:05;;;;;;;7.38;1.80;;;;;;;;;;4984256;28;20449;-83
2022/09/25 10:32:33;;;;;;;6.75;1.70;;;;;;;;;;4984546;28;20435;-82
2022/09/25 10:35:00;;;;;;;7.72;2.00;;;;;;;;;;4984374;28;20434;-82
2022/09/25 10:37:33;;;;;;;3.88;1.85;;;;;;;;;;4985474;28;20922;-82
2022/09/25 10:40:01;;;;;;;3.47;1.40;;;;;;;;;;4986579;28;20431;-82
2022/09/25 10:42:34;;;;;;;3.70;1.13;;;;;;;;;;4982816;28;20788;-81
2022/09/25 10:45:15;;;;;;;8.23;2.00;;;;;;;;;;4983988;28;20781;-84
2022/09/25 10:50:27;;;;;;;3.38;1.45;;;;;;;;;;4985565;28;20502;-84
2022/09/25 10:52:58;;;;;;;10.13;1.98;;;;;;;;;;4984637;28;20416;-83
2022/09/25 10:55:27;;;;;;;4.85;1.70;;;;;;;;;;5014484;28;20428;-83
2022/09/25 10:57:56;;;;;;;5.78;1.90;;;;;;;;;;4984436;28;20529;-85
2022/09/25 11:00:24;;;;;;;7.13;1.60;;;;;;;;;;4984849;28;20935;-85
2022/09/25 11:02:55;;;;;;;8.73;2.22;;;;;;;;;;4984278;28;20461;-84
2022/09/25 11:05:25;;;;;;;5.30;1.60;;;;;;;;;;4983590;28;20451;-84
2022/09/25 11:07:53;;;;;;;4.97;1.67;;;;;;;;;;4984567;28;20414;-84
2022/09/25 11:10:20;;;;;;;4.20;1.40;;;;;;;;;;4984424;28;20435;-82
2022/09/25 11:12:48;;;;;;;5.03;1.50;;;;;;;;;;4986335;28;20424;-82
2022/09/25 11:15:17;;;;;;;6.57;1.30;;;;;;;;;;4984477;28;20438;-82
2022/09/25 11:17:45;;;;;;;3.50;1.55;;;;;;;;;;4982943;28;20434;-82
2022/09/25 11:20:21;;;;;;;7.05;1.80;;;;;;;;;;4985864;28;20811;-81
2022/09/25 11:22:53;;;;;;;5.28;1.70;;;;;;;;;;4984553;28;20426;-80
2022/09/25 11:25:23;;;;;;;5.47;1.50;;;;;;;;;;4985482;28;20905;-82
2022/09/25 11:27:52;;;;;;;4.85;1.80;;;;;;;;;;4984564;28;20461;-80
2022/09/25 11:30:19;;;;;;;4.80;1.63;;;;;;;;;;4987582;28;20512;-81
2022/09/25 11:32:52;;;;;;;6.55;1.70;;;;;;;;;;4983307;28;20450;-82
2022/09/25 11:35:28;;;;;;;4.38;1.48;;;;;;;;;;4985676;28;20495;-82
2022/09/25 11:38:00;;;;;;;4.13;1.33;;;;;;;;;;4982078;28;20422;-82
2022/09/25 11:43:18;;;;;;;5.22;1.50;;;;;;;;;;4984711;28;20429;-82
2022/09/25 11:45:48;;;;;;;5.00;1.77;;;;;;;;;;4983084;28;20499;-81
2022/09/25 11:48:21;;;;;;;5.70;1.97;;;;;;;;;;4982544;28;20431;-80
2022/09/25 11:50:53;;;;;;;9.35;1.77;;;;;;;;;;4997766;28;20443;-83
2022/09/25 11:53:25;;;;;;;5.30;1.30;;;;;;;;;;5013173;28;20436;-80
2022/09/25 11:55:57;;;;;;;7.43;1.90;;;;;;;;;;4985565;28;20434;-82
2022/09/25 11:58:31;;;;;;;6.20;1.73;;;;;;;;;;4983218;28;20967;-81
2022/09/25 12:01:00;;;;;;;5.70;1.75;;;;;;;;;;4982937;28;20448;-84
2022/09/25 12:03:34;;;;;;;4.05;1.67;;;;;;;;;;4982990;28;20426;-83
2022/09/25 12:06:14;;;;;;;7.55;1.60;;;;;;;;;;4983462;28;20788;-85
2022/09/25 12:08:49;;;;;;;8.38;1.35;;;;;;;;;;4981954;28;20462;-80
2022/09/25 12:11:20;;;;;;;7.88;1.80;;;;;;;;;;4983739;28;20802;-81
2022/09/25 12:13:53;;;;;;;10.43;1.70;;;;;;;;;;4982776;28;20432;-82
2022/09/25 12:16:23;;;;;;;6.43;1.90;;;;;;;;;;4986075;28;20521;-81
2022/09/25 12:19:09;;;;;;;6.95;1.70;;;;;;;;;;5015016;28;20441;-81
2022/09/25 12:21:42;;;;;;;5.65;1.42;;;;;;;;;;4984517;28;20440;-84
2022/09/25 12:24:13;;;;;;;8.63;1.88;;;;;;;;;;4981721;28;20451;-82
2022/09/25 12:26:50;;;;;;;7.53;2.00;;;;;;;;;;4982083;28;20926;-83
2022/09/25 12:29:24;;;;;;;7.50;1.50;;;;;;;;;;4983013;28;20500;-84
2022/09/25 12:31:57;;;;;;;6.60;1.58;;;;;;;;;;4982209;28;20432;-83
2022/09/25 12:34:29;;;;;;;5.30;1.40;;;;;;;;;;4996383;28;20913;-83
2022/09/25 12:37:00;;;;;;;6.93;1.50;;;;;;;;;;4980444;28;20443;-82
2022/09/25 12:39:31;;;;;;;4.97;1.30;;;;;;;;;;4983802;28;20478;-84
2022/09/25 12:42:06;;;;;;;3.70;1.00;;;;;;;;;;4982362;28;20426;-83
2022/09/25 12:44:36;;;;;;;4.60;1.20;;;;;;;;;;4981757;28;20518;-84
2022/09/25 12:47:04;;;;;;;5.10;1.40;;;;;;;;;;4981799;28;20853;-83
2022/09/25 12:49:34;;;;;;;3.60;1.17;;;;;;;;;;5013173;28;20444;-83
2022/09/25 12:52:05;;;;;;;5.93;1.30;;;;;;;;;;4983547;28;20796;-82
2022/09/25 12:54:33;;;;;;;6.88;1.50;;;;;;;;;;4981915;28;20442;-83
2022/09/25 12:57:02;;;;;;;6.78;1.45;;;;;;;;;;4980640;28;20806;-84
2022/09/25 12:59:32;;;;;;;4.80;1.70;;;;;;;;;;4981638;28;20439;-81
2022/09/25 13:02:02;;;;;;;7.05;1.50;;;;;;;;;;4983340;28;20477;-82
2022/09/25 13:04:46;;;;;;;4.97;1.50;;;;;;;;;;4985506;28;20414;-80
2022/09/25 13:07:16;;;;;;;4.72;1.27;;;;;;;;;;4981095;28;20434;-82
2022/09/25 13:09:44;;;;;;;2.90;1.20;;;;;;;;;;4981427;28;20438;-84
2022/09/25 13:12:16;;;;;;;4.97;1.30;;;;;;;;;;4982340;28;20428;-81
2022/09/25 13:14:46;;;;;;;4.88;1.40;;;;;;;;;;4981980;28;20455;-83
2022/09/25 13:17:14;;;;;;;2.45;1.10;;;;;;;;;;4981892;28;21248;-82
2022/09/25 13:19:41;;;;;;;4.28;1.38;;;;;;;;;;4982038;28;20453;-84
2022/09/25 13:22:09;;;;;;;6.83;1.30;;;;;;;;;;4981402;28;20772;-82
2022/09/25 13:24:43;;;;;;;4.10;1.20;;;;;;;;;;4982466;28;20431;-81
2022/09/25 13:27:14;;;;;;;5.00;1.30;;;;;;;;;;4983836;28;20424;-84
2022/09/25 13:29:41;;;;;;;3.90;1.55;;;;;;;;;;4984279;28;20908;-81
2022/09/25 13:32:12;;;;;;;4.47;1.50;;;;;;;;;;4980639;28;20427;-81
2022/09/25 13:34:40;;;;;;;3.20;1.57;;;;;;;;;;4985484;28;20442;-81
2022/09/25 13:37:07;;;;;;;6.40;1.98;;;;;;;;;;4980291;28;20428;-82
2022/09/25 13:42:25;;;;;;;3.30;1.63;;;;;;;;;;4983758;28;20413;-82
2022/09/25 13:45:06;;;;;;;5.90;1.40;;;;;;;;;;4984299;28;20457;-81
2022/09/25 13:47:47;;;;;;;4.50;1.30;;;;;;;;;;4986396;28;20472;-80
2022/09/25 13:50:28;;;;;;;3.25;1.20;;;;;;;;;;4985714;28;20432;-84
2022/09/25 13:53:21;;;;;;;2.17;1.13;;;;;;;;;;4984937;28;20444;-82
2022/09/25 13:56:21;;;;;;;5.10;1.60;;;;;;;;;;4986690;28;20440;-84
2022/09/25 13:59:02;;;;;;;3.67;1.20;;;;;;;;;;4986216;28;20432;-82
2022/09/25 14:01:35;;;;;;;3.33;1.30;;;;;;;;;;4972324;28;20993;-83
2022/09/25 14:04:08;;;;;;;4.38;1.42;;;;;;;;;;4983435;28;20436;-82
2022/09/25 14:06:35;;;;;;;2.35;1.10;;;;;;;;;;4984919;28;20425;-83
2022/09/25 14:09:06;;;;;;;2.63;1.10;;;;;;;;;;4983563;28;20867;-83
2022/09/25 14:11:38;;;;;;;3.15;1.13;;;;;;;;;;4984207;28;20429;-83
2022/09/25 14:14:08;;;;;;;4.97;1.40;;;;;;;;;;4985610;28;20934;-82
2022/09/25 14:16:39;;;;;;;4.40;1.60;;;;;;;;;;4984206;28;20435;-84
2022/09/25 14:19:07;;;;;;;4.47;1.20;;;;;;;;;;4982931;28;20433;-83
2022/09/25 14:21:34;;;;;;;2.28;1.00;;;;;;;;;;4985130;28;20422;-83
2022/09/25 14:24:12;;;;;;;6.55;1.50;;;;;;;;;;4985146;28;20430;-81
2022/09/25 14:26:44;;;;;;;2.95;1.33;;;;;;;;;;4982747;28;20442;-83
2022/09/25 14:29:14;;;;;;;5.65;1.63;;;;;;;;;;4981514;28;20436;-82
2022/09/25 14:31:47;;;;;;;3.58;1.17;;;;;;;;;;4985658;28;20447;-81
2022/09/25 14:34:29;;;;;;;5.07;1.27;;;;;;;;;;4984263;28;20950;-81
2022/09/25 14:37:03;;;;;;;3.22;1.23;;;;;;;;;;4983890;28;20434;-82
2022/09/25 14:39:33;;;;;;;3.40;1.50;;;;;;;;;;4984760;28;20519;-82
2022/09/25 14:42:12;;;;;;;7.88;1.40;;;;;;;;;;4982389;28;20426;-82
2022/09/25 14:44:48;;;;;;;3.10;1.20;;;;;;;;;;4984849;28;20453;-81
2022/09/25 14:47:16;;;;;;;5.77;1.40;;;;;;;;;;4984647;28;20466;-84
2022/09/25 14:49:45;;;;;;;5.40;1.30;;;;;;;;;;4985956;28;20426;-83
2022/09/25 14:52:16;;;;;;;3.97;1.20;;;;;;;;;;4982307;28;20444;-81
2022/09/25 14:54:45;;;;;;;4.57;1.30;;;;;;;;;;4984049;28;20445;-81
2022/09/25 14:57:15;;;;;;;2.40;1.27;;;;;;;;;;4983121;28;20437;-81
2022/09/25 14:59:43;;;;;;;3.53;1.30;;;;;;;;;;4985026;28;20461;-82
2022/09/25 15:02:15;;;;;;;3.47;1.10;;;;;;;;;;4983625;28;20451;-83
2022/09/25 15:04:42;;;;;;;6.00;1.85;;;;;;;;;;4981776;28;21074;-83
2022/09/25 15:07:14;;;;;;;4.30;1.23;;;;;;;;;;4982996;28;20431;-82
2022/09/25 15:09:46;;;;;;;3.47;1.33;;;;;;;;;;5000095;28;20432;-83